sensor_id;sensor_type;location;lat;lon;timestamp;temperature;humidity
4964;DHT22;2497;47.410;9.740;2023-05-23T00:00:06;18.00;99.90
4964;DHT22;2497;47.410;9.740;2023-05-23T00:02:37;18.00;99.90
4964;DHT22;2497;47.410;9.740;2023-05-23T00:05:05;18.10;99.90
4964;DHT22;2497;47.410;9.740;2023-05-23T00:07:32;18.00;99.90
4964;DHT22;2497;47.410;9.740;2023-05-23T00:09:59;18.00;99.90
4964;DHT22;2497;47.410;9.740;2023-05-23T00:12:26;17.90;99.90
4964;DHT22;2497;47.410;9.740;2023-05-23T00:14:54;17.90;99.90
4964;DHT22;2497;47.410;9.740;2023-05-23T00:17:21;17.90;99.90
4964;DHT22;2497;47.410;9.740;2023-05-23T00:19:51;17.90;99.90
4964;DHT22;2497;47.410;9.740;2023-05-23T00:22:20;17.90;99.90
4964;DHT22;2497;47.410;9.740;2023-05-23T00:24:47;17.90;99.90
4964;DHT22;2497;47.410;9.740;2023-05-23T00:27:14;17.90;99.90
4964;DHT22;2497;47.410;9.740;2023-05-23T00:29:41;17.90;99.90
4964;DHT22;2497;47.410;9.740;2023-05-23T00:32:08;17.90;99.90
4964;DHT22;2497;47.410;9.740;2023-05-23T00:34:35;18.00;99.90
4964;DHT22;2497;47.410;9.740;2023-05-23T00:37:04;17.90;99.90
4964;DHT22;2497;47.410;9.740;2023-05-23T00:39:31;17.90;99.90
4964;DHT22;2497;47.410;9.740;2023-05-23T00:41:58;17.90;99.90
4964;DHT22;2497;47.410;9.740;2023-05-23T00:44:30;17.90;99.90
4964;DHT22;2497;47.410;9.740;2023-05-23T00:46:57;17.90;99.90
4964;DHT22;2497;47.410;9.740;2023-05-23T00:49:26;17.80;99.90
4964;DHT22;2497;47.410;9.740;2023-05-23T00:51:53;17.90;99.90
4964;DHT22;2497;47.410;9.740;2023-05-23T00:54:24;17.90;99.90
4964;DHT22;2497;47.410;9.740;2023-05-23T00:56:53;17.90;99.90
4964;DHT22;2497;47.410;9.740;2023-05-23T00:59:21;17.80;99.90
4964;DHT22;2497;47.410;9.740;2023-05-23T01:01:50;17.70;99.90
4964;DHT22;2497;47.410;9.740;2023-05-23T01:04:17;17.70;99.90
4964;DHT22;2497;47.410;9.740;2023-05-23T01:06:45;17.80;99.90
4964;DHT22;2497;47.410;9.740;2023-05-23T01:09:14;17.70;99.90
4964;DHT22;2497;47.410;9.740;2023-05-23T01:11:49;17.60;99.90
4964;DHT22;2497;47.410;9.740;2023-05-23T01:14:28;17.60;99.90
4964;DHT22;2497;47.410;9.740;2023-05-23T01:17:02;17.60;99.90
4964;DHT22;2497;47.410;9.740;2023-05-23T01:19:51;17.60;99.90
4964;DHT22;2497;47.410;9.740;2023-05-23T01:22:26;17.60;99.90
4964;DHT22;2497;47.410;9.740;2023-05-23T01:24:59;17.60;99.90
4964;DHT22;2497;47.410;9.740;2023-05-23T01:27:45;17.50;99.90
4964;DHT22;2497;47.410;9.740;2023-05-23T01:30:17;17.30;99.90
4964;DHT22;2497;47.410;9.740;2023-05-23T01:32:46;17.30;99.90
4964;DHT22;2497;47.410;9.740;2023-05-23T01:35:14;17.30;99.90
4964;DHT22;2497;47.410;9.740;2023-05-23T01:37:44;17.40;99.90
4964;DHT22;2497;47.410;9.740;2023-05-23T01:40:21;17.40;99.90
4964;DHT22;2497;47.410;9.740;2023-05-23T01:42:50;17.40;99.90
4964;DHT22;2497;47.410;9.740;2023-05-23T01:45:18;17.50;99.90
4964;DHT22;2497;47.410;9.740;2023-05-23T01:47:47;17.50;99.90
4964;DHT22;2497;47.410;9.740;2023-05-23T01:50:15;17.50;99.90
4964;DHT22;2497;47.410;9.740;2023-05-23T01:52:42;17.50;99.90
4964;DHT22;2497;47.410;9.740;2023-05-23T01:55:11;17.50;99.90
4964;DHT22;2497;47.410;9.740;2023-05-23T01:57:40;17.50;99.90
4964;DHT22;2497;47.410;9.740;2023-05-23T02:00:10;17.40;99.90
4964;DHT22;2497;47.410;9.740;2023-05-23T02:02:37;17.20;99.90
4964;DHT22;2497;47.410;9.740;2023-05-23T02:05:05;17.30;99.90
4964;DHT22;2497;47.410;9.740;2023-05-23T02:07:32;17.20;99.90
4964;DHT22;2497;47.410;9.740;2023-05-23T02:09:59;17.10;99.90
4964;DHT22;2497;47.410;9.740;2023-05-23T02:12:26;17.10;99.90
4964;DHT22;2497;47.410;9.740;2023-05-23T02:14:54;17.20;99.90
4964;DHT22;2497;47.410;9.740;2023-05-23T02:17:22;17.10;99.90
4964;DHT22;2497;47.410;9.740;2023-05-23T02:19:50;17.00;99.90
4964;DHT22;2497;47.410;9.740;2023-05-23T02:22:17;16.90;99.90
4964;DHT22;2497;47.410;9.740;2023-05-23T02:24:44;16.90;99.90
4964;DHT22;2497;47.410;9.740;2023-05-23T02:27:11;16.90;99.90
4964;DHT22;2497;47.410;9.740;2023-05-23T02:29:38;16.80;99.90
4964;DHT22;2497;47.410;9.740;2023-05-23T02:32:05;16.80;99.90
4964;DHT22;2497;47.410;9.740;2023-05-23T02:34:34;16.70;99.90
4964;DHT22;2497;47.410;9.740;2023-05-23T02:37:03;16.60;99.90
4964;DHT22;2497;47.410;9.740;2023-05-23T02:39:31;16.70;99.90
4964;DHT22;2497;47.410;9.740;2023-05-23T02:41:58;16.70;99.90
4964;DHT22;2497;47.410;9.740;2023-05-23T02:44:26;16.70;99.90
4964;DHT22;2497;47.410;9.740;2023-05-23T02:46:53;16.60;99.90
4964;DHT22;2497;47.410;9.740;2023-05-23T02:49:20;16.60;99.90
4964;DHT22;2497;47.410;9.740;2023-05-23T02:51:49;16.50;99.90
4964;DHT22;2497;47.410;9.740;2023-05-23T02:54:16;16.50;99.90
4964;DHT22;2497;47.410;9.740;2023-05-23T02:56:43;16.40;99.90
4964;DHT22;2497;47.410;9.740;2023-05-23T02:59:11;16.40;99.90
4964;DHT22;2497;47.410;9.740;2023-05-23T03:01:38;16.40;99.90
4964;DHT22;2497;47.410;9.740;2023-05-23T03:04:05;16.40;99.90
4964;DHT22;2497;47.410;9.740;2023-05-23T03:06:32;16.30;99.90
4964;DHT22;2497;47.410;9.740;2023-05-23T03:09:02;16.30;99.90
4964;DHT22;2497;47.410;9.740;2023-05-23T03:11:29;16.30;99.90
4964;DHT22;2497;47.410;9.740;2023-05-23T03:13:57;16.30;99.90
4964;DHT22;2497;47.410;9.740;2023-05-23T03:16:24;16.20;99.90
4964;DHT22;2497;47.410;9.740;2023-05-23T03:18:51;16.20;99.90
4964;DHT22;2497;47.410;9.740;2023-05-23T03:21:18;16.10;99.90
4964;DHT22;2497;47.410;9.740;2023-05-23T03:23:45;16.30;99.90
4964;DHT22;2497;47.410;9.740;2023-05-23T03:26:14;16.40;99.90
4964;DHT22;2497;47.410;9.740;2023-05-23T03:28:41;16.40;99.90
4964;DHT22;2497;47.410;9.740;2023-05-23T03:31:08;16.40;99.90
4964;DHT22;2497;47.410;9.740;2023-05-23T03:33:35;16.50;99.90
4964;DHT22;2497;47.410;9.740;2023-05-23T03:36:02;16.50;99.90
4964;DHT22;2497;47.410;9.740;2023-05-23T03:38:29;16.50;99.90
4964;DHT22;2497;47.410;9.740;2023-05-23T03:40:56;16.60;99.90
4964;DHT22;2497;47.410;9.740;2023-05-23T03:43:24;16.60;99.90
4964;DHT22;2497;47.410;9.740;2023-05-23T03:45:52;16.60;99.90
4964;DHT22;2497;47.410;9.740;2023-05-23T03:48:19;16.60;99.90
4964;DHT22;2497;47.410;9.740;2023-05-23T03:50:47;16.60;99.90
4964;DHT22;2497;47.410;9.740;2023-05-23T03:53:14;16.50;99.90
4964;DHT22;2497;47.410;9.740;2023-05-23T03:55:41;16.50;99.90
4964;DHT22;2497;47.410;9.740;2023-05-23T03:58:08;16.50;99.90
4964;DHT22;2497;47.410;9.740;2023-05-23T04:00:38;16.50;99.90
4964;DHT22;2497;47.410;9.740;2023-05-23T04:03:05;16.50;99.90
4964;DHT22;2497;47.410;9.740;2023-05-23T04:05:33;16.40;99.90
4964;DHT22;2497;47.410;9.740;2023-05-23T04:08:02;16.40;99.90
4964;DHT22;2497;47.410;9.740;2023-05-23T04:10:29;16.50;99.90
4964;DHT22;2497;47.410;9.740;2023-05-23T04:12:56;16.50;99.90
4964;DHT22;2497;47.410;9.740;2023-05-23T04:15:23;16.70;99.90
4964;DHT22;2497;47.410;9.740;2023-05-23T04:17:54;16.70;99.90
4964;DHT22;2497;47.410;9.740;2023-05-23T04:20:21;16.80;99.90
4964;DHT22;2497;47.410;9.740;2023-05-23T04:22:48;16.80;99.90
4964;DHT22;2497;47.410;9.740;2023-05-23T04:25:15;16.80;99.90
4964;DHT22;2497;47.410;9.740;2023-05-23T04:27:43;16.80;99.90
4964;DHT22;2497;47.410;9.740;2023-05-23T04:30:10;16.80;99.90
4964;DHT22;2497;47.410;9.740;2023-05-23T04:32:38;16.70;99.90
4964;DHT22;2497;47.410;9.740;2023-05-23T04:35:07;16.70;99.90
4964;DHT22;2497;47.410;9.740;2023-05-23T04:37:35;16.70;99.90
4964;DHT22;2497;47.410;9.740;2023-05-23T04:40:03;16.70;99.90
4964;DHT22;2497;47.410;9.740;2023-05-23T04:42:31;16.70;99.90
4964;DHT22;2497;47.410;9.740;2023-05-23T04:44:58;16.70;99.90
4964;DHT22;2497;47.410;9.740;2023-05-23T04:47:27;16.80;99.90
4964;DHT22;2497;47.410;9.740;2023-05-23T04:49:59;16.80;99.90
4964;DHT22;2497;47.410;9.740;2023-05-23T04:52:29;16.80;99.90
4964;DHT22;2497;47.410;9.740;2023-05-23T04:54:57;16.80;99.90
4964;DHT22;2497;47.410;9.740;2023-05-23T04:57:24;16.80;99.90
4964;DHT22;2497;47.410;9.740;2023-05-23T04:59:52;16.80;99.90
4964;DHT22;2497;47.410;9.740;2023-05-23T05:02:19;16.80;99.90
4964;DHT22;2497;47.410;9.740;2023-05-23T05:04:46;16.70;99.90
4964;DHT22;2497;47.410;9.740;2023-05-23T05:07:13;16.80;99.90
4964;DHT22;2497;47.410;9.740;2023-05-23T05:09:42;16.90;99.90
4964;DHT22;2497;47.410;9.740;2023-05-23T05:12:09;16.90;99.90
4964;DHT22;2497;47.410;9.740;2023-05-23T05:14:36;16.90;99.90
4964;DHT22;2497;47.410;9.740;2023-05-23T05:17:03;16.90;99.90
4964;DHT22;2497;47.410;9.740;2023-05-23T05:19:31;17.00;99.90
4964;DHT22;2497;47.410;9.740;2023-05-23T05:21:58;17.00;99.90
4964;DHT22;2497;47.410;9.740;2023-05-23T05:24:25;17.00;99.90
4964;DHT22;2497;47.410;9.740;2023-05-23T05:26:55;17.10;99.90
4964;DHT22;2497;47.410;9.740;2023-05-23T05:29:22;17.20;99.90
4964;DHT22;2497;47.410;9.740;2023-05-23T05:31:52;17.20;99.90
4964;DHT22;2497;47.410;9.740;2023-05-23T05:34:19;17.30;99.90
4964;DHT22;2497;47.410;9.740;2023-05-23T05:36:47;17.20;99.90
4964;DHT22;2497;47.410;9.740;2023-05-23T05:39:14;17.30;99.90
4964;DHT22;2497;47.410;9.740;2023-05-23T05:41:43;17.30;99.90
4964;DHT22;2497;47.410;9.740;2023-05-23T05:44:17;17.30;99.90
4964;DHT22;2497;47.410;9.740;2023-05-23T05:46:44;17.40;99.90
4964;DHT22;2497;47.410;9.740;2023-05-23T05:49:17;17.40;99.90
4964;DHT22;2497;47.410;9.740;2023-05-23T05:51:44;17.50;99.90
4964;DHT22;2497;47.410;9.740;2023-05-23T05:54:11;17.50;99.90
4964;DHT22;2497;47.410;9.740;2023-05-23T05:56:38;17.60;99.90
4964;DHT22;2497;47.410;9.740;2023-05-23T05:59:06;17.70;99.90
4964;DHT22;2497;47.410;9.740;2023-05-23T06:01:40;17.80;99.90
4964;DHT22;2497;47.410;9.740;2023-05-23T06:04:07;17.80;99.90
4964;DHT22;2497;47.410;9.740;2023-05-23T06:06:34;17.80;99.90
4964;DHT22;2497;47.410;9.740;2023-05-23T06:09:01;18.00;99.90
4964;DHT22;2497;47.410;9.740;2023-05-23T06:11:28;18.10;99.90
4964;DHT22;2497;47.410;9.740;2023-05-23T06:13:57;18.10;99.90
4964;DHT22;2497;47.410;9.740;2023-05-23T06:16:24;18.10;99.90
4964;DHT22;2497;47.410;9.740;2023-05-23T06:18:52;18.10;99.90
4964;DHT22;2497;47.410;9.740;2023-05-23T06:21:19;18.10;99.90
4964;DHT22;2497;47.410;9.740;2023-05-23T06:23:47;18.20;99.90
4964;DHT22;2497;47.410;9.740;2023-05-23T06:26:14;18.30;99.90
4964;DHT22;2497;47.410;9.740;2023-05-23T06:28:42;18.50;99.90
4964;DHT22;2497;47.410;9.740;2023-05-23T06:31:09;18.40;99.90
4964;DHT22;2497;47.410;9.740;2023-05-23T06:33:38;18.40;99.90
4964;DHT22;2497;47.410;9.740;2023-05-23T06:36:07;18.30;99.90
4964;DHT22;2497;47.410;9.740;2023-05-23T06:38:36;18.20;99.90
4964;DHT22;2497;47.410;9.740;2023-05-23T06:41:03;18.40;99.90
4964;DHT22;2497;47.410;9.740;2023-05-23T06:43:31;18.40;99.90
4964;DHT22;2497;47.410;9.740;2023-05-23T06:45:58;18.30;99.90
4964;DHT22;2497;47.410;9.740;2023-05-23T06:48:25;18.20;99.90
4964;DHT22;2497;47.410;9.740;2023-05-23T06:50:52;18.40;99.90
4964;DHT22;2497;47.410;9.740;2023-05-23T06:53:21;18.40;99.90
4964;DHT22;2497;47.410;9.740;2023-05-23T06:55:48;18.60;99.90
4964;DHT22;2497;47.410;9.740;2023-05-23T06:58:20;18.80;99.90
4964;DHT22;2497;47.410;9.740;2023-05-23T07:00:49;18.70;99.90
4964;DHT22;2497;47.410;9.740;2023-05-23T07:03:16;18.80;99.90
4964;DHT22;2497;47.410;9.740;2023-05-23T07:05:43;18.80;99.90
4964;DHT22;2497;47.410;9.740;2023-05-23T07:08:11;18.90;99.90
4964;DHT22;2497;47.410;9.740;2023-05-23T07:10:41;19.10;99.90
4964;DHT22;2497;47.410;9.740;2023-05-23T07:13:08;19.10;99.90
4964;DHT22;2497;47.410;9.740;2023-05-23T07:15:35;19.10;99.90
4964;DHT22;2497;47.410;9.740;2023-05-23T07:18:02;19.10;99.90
4964;DHT22;2497;47.410;9.740;2023-05-23T07:20:31;19.20;99.90
4964;DHT22;2497;47.410;9.740;2023-05-23T07:23:01;19.30;99.90
4964;DHT22;2497;47.410;9.740;2023-05-23T07:25:28;19.50;99.90
4964;DHT22;2497;47.410;9.740;2023-05-23T07:28:00;19.70;99.90
4964;DHT22;2497;47.410;9.740;2023-05-23T07:30:34;19.80;99.90
4964;DHT22;2497;47.410;9.740;2023-05-23T07:33:01;20.00;99.90
4964;DHT22;2497;47.410;9.740;2023-05-23T07:35:28;19.90;99.90
4964;DHT22;2497;47.410;9.740;2023-05-23T07:37:55;19.70;99.90
4964;DHT22;2497;47.410;9.740;2023-05-23T07:40:29;19.80;99.90
4964;DHT22;2497;47.410;9.740;2023-05-23T07:43:06;19.80;99.90
4964;DHT22;2497;47.410;9.740;2023-05-23T07:45:33;19.80;99.90
4964;DHT22;2497;47.410;9.740;2023-05-23T07:48:00;19.80;99.90
4964;DHT22;2497;47.410;9.740;2023-05-23T07:50:27;20.10;99.90
4964;DHT22;2497;47.410;9.740;2023-05-23T07:52:54;20.10;99.90
4964;DHT22;2497;47.410;9.740;2023-05-23T07:55:21;19.90;99.90
4964;DHT22;2497;47.410;9.740;2023-05-23T07:57:50;19.90;99.90
4964;DHT22;2497;47.410;9.740;2023-05-23T08:00:21;19.80;99.90
4964;DHT22;2497;47.410;9.740;2023-05-23T08:02:54;19.70;99.90
4964;DHT22;2497;47.410;9.740;2023-05-23T08:05:21;19.90;99.90
4964;DHT22;2497;47.410;9.740;2023-05-23T08:07:52;20.00;99.90
4964;DHT22;2497;47.410;9.740;2023-05-23T08:10:21;20.10;99.90
4964;DHT22;2497;47.410;9.740;2023-05-23T08:12:48;20.50;99.90
4964;DHT22;2497;47.410;9.740;2023-05-23T08:15:15;20.60;99.90
4964;DHT22;2497;47.410;9.740;2023-05-23T08:17:48;20.80;99.90
4964;DHT22;2497;47.410;9.740;2023-05-23T08:20:15;21.00;99.90
4964;DHT22;2497;47.410;9.740;2023-05-23T08:22:43;20.90;99.90
4964;DHT22;2497;47.410;9.740;2023-05-23T08:25:11;20.80;99.90
4964;DHT22;2497;47.410;9.740;2023-05-23T08:27:40;20.70;99.90
4964;DHT22;2497;47.410;9.740;2023-05-23T08:30:08;20.70;99.90
4964;DHT22;2497;47.410;9.740;2023-05-23T08:32:36;20.60;99.90
4964;DHT22;2497;47.410;9.740;2023-05-23T08:35:14;20.20;99.90
4964;DHT22;2497;47.410;9.740;2023-05-23T08:37:54;20.40;99.90
4964;DHT22;2497;47.410;9.740;2023-05-23T08:40:23;20.40;99.90
4964;DHT22;2497;47.410;9.740;2023-05-23T08:42:53;20.50;99.90
4964;DHT22;2497;47.410;9.740;2023-05-23T08:45:20;20.30;99.90
4964;DHT22;2497;47.410;9.740;2023-05-23T08:47:50;20.30;99.90
4964;DHT22;2497;47.410;9.740;2023-05-23T08:50:27;20.30;99.90
4964;DHT22;2497;47.410;9.740;2023-05-23T08:52:55;20.30;99.90
4964;DHT22;2497;47.410;9.740;2023-05-23T08:55:26;20.50;99.90
4964;DHT22;2497;47.410;9.740;2023-05-23T08:57:56;20.80;99.90
4964;DHT22;2497;47.410;9.740;2023-05-23T09:00:25;21.00;99.90
4964;DHT22;2497;47.410;9.740;2023-05-23T09:02:54;21.10;99.90
4964;DHT22;2497;47.410;9.740;2023-05-23T09:05:23;21.20;99.90
4964;DHT22;2497;47.410;9.740;2023-05-23T09:07:50;21.30;99.90
4964;DHT22;2497;47.410;9.740;2023-05-23T09:10:20;21.40;99.90
4964;DHT22;2497;47.410;9.740;2023-05-23T09:12:52;21.60;99.90
4964;DHT22;2497;47.410;9.740;2023-05-23T09:15:19;21.80;99.90
4964;DHT22;2497;47.410;9.740;2023-05-23T09:17:48;22.40;99.90
4964;DHT22;2497;47.410;9.740;2023-05-23T09:20:22;22.90;99.90
4964;DHT22;2497;47.410;9.740;2023-05-23T09:22:51;23.10;99.90
4964;DHT22;2497;47.410;9.740;2023-05-23T09:25:23;24.00;99.90
4964;DHT22;2497;47.410;9.740;2023-05-23T09:27:51;24.80;99.90
4964;DHT22;2497;47.410;9.740;2023-05-23T09:30:21;25.20;99.90
4964;DHT22;2497;47.410;9.740;2023-05-23T09:33:04;24.80;99.90
4964;DHT22;2497;47.410;9.740;2023-05-23T09:35:33;24.20;99.90
4964;DHT22;2497;47.410;9.740;2023-05-23T09:38:01;23.70;99.90
4964;DHT22;2497;47.410;9.740;2023-05-23T09:40:31;23.20;99.90
4964;DHT22;2497;47.410;9.740;2023-05-23T09:43:03;23.00;99.90
4964;DHT22;2497;47.410;9.740;2023-05-23T09:45:32;23.00;99.90
4964;DHT22;2497;47.410;9.740;2023-05-23T09:48:02;22.60;99.90
4964;DHT22;2497;47.410;9.740;2023-05-23T09:53:12;22.20;99.90
4964;DHT22;2497;47.410;9.740;2023-05-23T09:55:39;22.30;99.90
4964;DHT22;2497;47.410;9.740;2023-05-23T09:58:09;22.50;99.90
4964;DHT22;2497;47.410;9.740;2023-05-23T10:00:41;22.40;99.90
4964;DHT22;2497;47.410;9.740;2023-05-23T10:03:10;22.40;99.90
4964;DHT22;2497;47.410;9.740;2023-05-23T10:05:43;22.60;99.90
4964;DHT22;2497;47.410;9.740;2023-05-23T10:08:13;23.30;99.90
4964;DHT22;2497;47.410;9.740;2023-05-23T10:13:50;23.30;99.90
4964;DHT22;2497;47.410;9.740;2023-05-23T10:16:28;23.10;99.90
4964;DHT22;2497;47.410;9.740;2023-05-23T10:19:00;22.90;99.90
4964;DHT22;2497;47.410;9.740;2023-05-23T10:21:32;22.70;99.90
4964;DHT22;2497;47.410;9.740;2023-05-23T10:24:03;23.10;99.90
4964;DHT22;2497;47.410;9.740;2023-05-23T10:26:30;23.30;99.90
4964;DHT22;2497;47.410;9.740;2023-05-23T10:28:58;24.00;99.90
4964;DHT22;2497;47.410;9.740;2023-05-23T10:31:32;24.00;99.90
4964;DHT22;2497;47.410;9.740;2023-05-23T10:34:05;24.10;99.90
4964;DHT22;2497;47.410;9.740;2023-05-23T10:36:42;24.50;99.90
4964;DHT22;2497;47.410;9.740;2023-05-23T10:39:21;24.40;99.90
4964;DHT22;2497;47.410;9.740;2023-05-23T10:41:55;24.90;99.90
4964;DHT22;2497;47.410;9.740;2023-05-23T10:44:30;25.20;99.90
4964;DHT22;2497;47.410;9.740;2023-05-23T10:47:03;25.00;99.90
4964;DHT22;2497;47.410;9.740;2023-05-23T10:49:43;24.60;99.90
4964;DHT22;2497;47.410;9.740;2023-05-23T10:52:15;25.20;99.90
4964;DHT22;2497;47.410;9.740;2023-05-23T10:54:47;25.60;99.90
4964;DHT22;2497;47.410;9.740;2023-05-23T10:57:25;25.80;99.90
4964;DHT22;2497;47.410;9.740;2023-05-23T11:00:32;26.60;99.90
4964;DHT22;2497;47.410;9.740;2023-05-23T11:02:59;26.90;99.90
4964;DHT22;2497;47.410;9.740;2023-05-23T11:05:54;26.90;99.90
4964;DHT22;2497;47.410;9.740;2023-05-23T11:08:24;27.60;99.90
4964;DHT22;2497;47.410;9.740;2023-05-23T11:10:53;27.70;99.90
4964;DHT22;2497;47.410;9.740;2023-05-23T11:13:21;27.80;99.90
4964;DHT22;2497;47.410;9.740;2023-05-23T11:15:50;28.00;99.90
4964;DHT22;2497;47.410;9.740;2023-05-23T11:18:22;28.50;99.90
4964;DHT22;2497;47.410;9.740;2023-05-23T11:20:51;28.00;99.90
4964;DHT22;2497;47.410;9.740;2023-05-23T11:23:38;28.60;99.90
4964;DHT22;2497;47.410;9.740;2023-05-23T11:26:28;28.90;99.90
4964;DHT22;2497;47.410;9.740;2023-05-23T11:28:55;29.00;99.90
4964;DHT22;2497;47.410;9.740;2023-05-23T11:31:23;29.00;99.90
4964;DHT22;2497;47.410;9.740;2023-05-23T11:33:52;28.90;99.90
4964;DHT22;2497;47.410;9.740;2023-05-23T11:36:22;28.40;99.90
4964;DHT22;2497;47.410;9.740;2023-05-23T11:38:51;28.20;99.90
4964;DHT22;2497;47.410;9.740;2023-05-23T11:41:22;28.00;99.90
4964;DHT22;2497;47.410;9.740;2023-05-23T11:43:51;28.50;99.90
4964;DHT22;2497;47.410;9.740;2023-05-23T11:46:20;28.70;99.90
4964;DHT22;2497;47.410;9.740;2023-05-23T11:48:51;28.60;99.90
4964;DHT22;2497;47.410;9.740;2023-05-23T11:51:18;28.60;99.90
4964;DHT22;2497;47.410;9.740;2023-05-23T11:53:49;28.80;99.90
4964;DHT22;2497;47.410;9.740;2023-05-23T11:56:23;28.60;99.90
4964;DHT22;2497;47.410;9.740;2023-05-23T11:58:53;29.10;99.90
4964;DHT22;2497;47.410;9.740;2023-05-23T12:01:29;30.00;99.90
4964;DHT22;2497;47.410;9.740;2023-05-23T12:04:08;30.80;99.90
4964;DHT22;2497;47.410;9.740;2023-05-23T12:06:38;31.00;99.90
4964;DHT22;2497;47.410;9.740;2023-05-23T12:09:06;30.90;99.90
4964;DHT22;2497;47.410;9.740;2023-05-23T12:11:42;30.20;99.90
4964;DHT22;2497;47.410;9.740;2023-05-23T12:14:14;30.90;99.90
4964;DHT22;2497;47.410;9.740;2023-05-23T12:16:43;30.80;99.90
4964;DHT22;2497;47.410;9.740;2023-05-23T12:19:11;31.00;99.90
4964;DHT22;2497;47.410;9.740;2023-05-23T12:21:43;31.30;99.90
4964;DHT22;2497;47.410;9.740;2023-05-23T12:24:13;31.20;99.90
4964;DHT22;2497;47.410;9.740;2023-05-23T12:26:51;29.30;99.90
4964;DHT22;2497;47.410;9.740;2023-05-23T12:29:19;28.30;99.90
4964;DHT22;2497;47.410;9.740;2023-05-23T12:31:51;27.90;99.90
4964;DHT22;2497;47.410;9.740;2023-05-23T12:34:19;27.10;99.90
4964;DHT22;2497;47.410;9.740;2023-05-23T12:36:54;26.20;99.90
4964;DHT22;2497;47.410;9.740;2023-05-23T12:39:23;25.90;99.90
4964;DHT22;2497;47.410;9.740;2023-05-23T12:41:53;25.60;99.90
4964;DHT22;2497;47.410;9.740;2023-05-23T12:44:23;25.20;99.90
4964;DHT22;2497;47.410;9.740;2023-05-23T12:46:50;24.80;99.90
4964;DHT22;2497;47.410;9.740;2023-05-23T12:49:20;24.50;99.90
4964;DHT22;2497;47.410;9.740;2023-05-23T12:51:53;24.30;99.90
4964;DHT22;2497;47.410;9.740;2023-05-23T12:54:22;24.30;99.90
4964;DHT22;2497;47.410;9.740;2023-05-23T12:56:56;24.30;99.90
4964;DHT22;2497;47.410;9.740;2023-05-23T12:59:23;24.10;99.90
4964;DHT22;2497;47.410;9.740;2023-05-23T13:01:53;23.90;99.90
4964;DHT22;2497;47.410;9.740;2023-05-23T13:04:20;23.90;99.90
4964;DHT22;2497;47.410;9.740;2023-05-23T13:06:47;24.00;99.90
4964;DHT22;2497;47.410;9.740;2023-05-23T13:09:15;23.90;99.90
4964;DHT22;2497;47.410;9.740;2023-05-23T13:11:43;23.80;99.90
4964;DHT22;2497;47.410;9.740;2023-05-23T13:14:13;24.10;99.90
4964;DHT22;2497;47.410;9.740;2023-05-23T13:16:40;24.40;99.90
4964;DHT22;2497;47.410;9.740;2023-05-23T13:19:13;24.10;99.90
4964;DHT22;2497;47.410;9.740;2023-05-23T13:21:43;24.00;99.90
4964;DHT22;2497;47.410;9.740;2023-05-23T13:24:13;24.00;99.90
4964;DHT22;2497;47.410;9.740;2023-05-23T13:26:46;24.00;99.90
4964;DHT22;2497;47.410;9.740;2023-05-23T13:29:23;23.90;99.90
4964;DHT22;2497;47.410;9.740;2023-05-23T13:31:52;23.90;99.90
4964;DHT22;2497;47.410;9.740;2023-05-23T13:34:19;23.70;99.90
4964;DHT22;2497;47.410;9.740;2023-05-23T13:36:46;23.80;99.90
4964;DHT22;2497;47.410;9.740;2023-05-23T13:39:14;24.00;99.90
4964;DHT22;2497;47.410;9.740;2023-05-23T13:41:41;23.70;99.90
4964;DHT22;2497;47.410;9.740;2023-05-23T13:44:08;23.80;99.90
4964;DHT22;2497;47.410;9.740;2023-05-23T13:46:37;23.70;99.90
4964;DHT22;2497;47.410;9.740;2023-05-23T13:49:04;23.40;99.90
4964;DHT22;2497;47.410;9.740;2023-05-23T13:51:33;23.10;99.90
4964;DHT22;2497;47.410;9.740;2023-05-23T13:54:01;22.90;99.90
4964;DHT22;2497;47.410;9.740;2023-05-23T13:56:28;22.80;99.90
4964;DHT22;2497;47.410;9.740;2023-05-23T13:58:58;22.70;99.90
4964;DHT22;2497;47.410;9.740;2023-05-23T14:01:31;22.50;99.90
4964;DHT22;2497;47.410;9.740;2023-05-23T14:03:59;22.20;99.90
4964;DHT22;2497;47.410;9.740;2023-05-23T14:06:26;22.20;99.90
4964;DHT22;2497;47.410;9.740;2023-05-23T14:08:53;22.00;99.90
4964;DHT22;2497;47.410;9.740;2023-05-23T14:11:21;21.90;99.90
4964;DHT22;2497;47.410;9.740;2023-05-23T14:13:51;21.90;99.90
4964;DHT22;2497;47.410;9.740;2023-05-23T14:16:21;21.90;99.90
4964;DHT22;2497;47.410;9.740;2023-05-23T14:18:48;21.70;99.90
4964;DHT22;2497;47.410;9.740;2023-05-23T14:21:22;21.60;99.90
4964;DHT22;2497;47.410;9.740;2023-05-23T14:23:50;21.50;99.90
4964;DHT22;2497;47.410;9.740;2023-05-23T14:26:18;21.50;99.90
4964;DHT22;2497;47.410;9.740;2023-05-23T14:28:48;21.40;99.90
4964;DHT22;2497;47.410;9.740;2023-05-23T14:31:15;21.40;99.90
4964;DHT22;2497;47.410;9.740;2023-05-23T14:33:42;21.40;99.90
4964;DHT22;2497;47.410;9.740;2023-05-23T14:36:09;21.50;99.90
4964;DHT22;2497;47.410;9.740;2023-05-23T14:38:38;21.50;99.90
4964;DHT22;2497;47.410;9.740;2023-05-23T14:41:06;21.60;99.90
4964;DHT22;2497;47.410;9.740;2023-05-23T14:43:35;21.80;99.90
4964;DHT22;2497;47.410;9.740;2023-05-23T14:46:05;21.90;99.90
4964;DHT22;2497;47.410;9.740;2023-05-23T14:48:33;21.90;99.90
4964;DHT22;2497;47.410;9.740;2023-05-23T14:51:00;21.90;99.90
4964;DHT22;2497;47.410;9.740;2023-05-23T14:53:35;21.80;99.90
4964;DHT22;2497;47.410;9.740;2023-05-23T14:56:06;21.70;99.90
4964;DHT22;2497;47.410;9.740;2023-05-23T14:58:33;21.90;99.90
4964;DHT22;2497;47.410;9.740;2023-05-23T15:01:00;22.10;99.90
4964;DHT22;2497;47.410;9.740;2023-05-23T15:03:31;22.10;99.90
4964;DHT22;2497;47.410;9.740;2023-05-23T15:05:58;22.10;99.90
4964;DHT22;2497;47.410;9.740;2023-05-23T15:08:25;22.10;99.90
4964;DHT22;2497;47.410;9.740;2023-05-23T15:10:53;22.10;99.90
4964;DHT22;2497;47.410;9.740;2023-05-23T15:13:22;22.00;99.90
4964;DHT22;2497;47.410;9.740;2023-05-23T15:15:49;21.90;99.90
4964;DHT22;2497;47.410;9.740;2023-05-23T15:18:18;21.80;99.90
4964;DHT22;2497;47.410;9.740;2023-05-23T15:20:48;21.80;99.90
4964;DHT22;2497;47.410;9.740;2023-05-23T15:23:17;21.60;99.90
4964;DHT22;2497;47.410;9.740;2023-05-23T15:25:44;21.40;99.90
4964;DHT22;2497;47.410;9.740;2023-05-23T15:28:11;21.20;99.90
4964;DHT22;2497;47.410;9.740;2023-05-23T15:30:51;21.20;99.90
4964;DHT22;2497;47.410;9.740;2023-05-23T15:33:28;21.10;99.90
4964;DHT22;2497;47.410;9.740;2023-05-23T15:36:00;21.00;99.90
4964;DHT22;2497;47.410;9.740;2023-05-23T15:38:31;20.90;99.90
4964;DHT22;2497;47.410;9.740;2023-05-23T15:40:58;20.50;99.90
4964;DHT22;2497;47.410;9.740;2023-05-23T15:43:29;20.00;99.90
4964;DHT22;2497;47.410;9.740;2023-05-23T15:45:58;19.50;99.90
4964;DHT22;2497;47.410;9.740;2023-05-23T15:48:25;19.40;99.90
4964;DHT22;2497;47.410;9.740;2023-05-23T15:50:53;19.40;99.90
4964;DHT22;2497;47.410;9.740;2023-05-23T15:53:22;19.10;99.90
4964;DHT22;2497;47.410;9.740;2023-05-23T15:55:52;18.80;99.90
4964;DHT22;2497;47.410;9.740;2023-05-23T15:58:25;18.30;99.90
4964;DHT22;2497;47.410;9.740;2023-05-23T16:00:52;18.30;99.90
4964;DHT22;2497;47.410;9.740;2023-05-23T16:03:22;18.30;99.90
4964;DHT22;2497;47.410;9.740;2023-05-23T16:05:57;18.30;99.90
4964;DHT22;2497;47.410;9.740;2023-05-23T16:08:25;18.30;99.90
4964;DHT22;2497;47.410;9.740;2023-05-23T16:10:55;18.30;99.90
4964;DHT22;2497;47.410;9.740;2023-05-23T16:13:23;18.40;99.90
4964;DHT22;2497;47.410;9.740;2023-05-23T16:15:53;18.40;99.90
4964;DHT22;2497;47.410;9.740;2023-05-23T16:18:21;18.40;99.90
4964;DHT22;2497;47.410;9.740;2023-05-23T16:20:48;18.20;99.90